Amanda Park, Washington
Current Conditions -  °F | °C
As of 8:53 AM on Friday 28 Nov 2014 (Local Time) from KHQM Reporting Station
Light Rain Light Rain  
Wind Chill: 45°   Ceiling: 1600
Heat Index: 48°   Visibility: 2.5mi
Dew Point: 46°   Wind: 7mph
Humidity: 93%   Direction: 290°WNW
Pressure: 29.55"   Gusts: NA
Location:  47.46°N, 123.89°W
Report Text: KHQM 281653Z AUTO 29006KT 2 1/2SM -RA BR SCT009 BKN016 OVC022 09/08 A2955 RMK AO2 RAE00B05 SLP009 P0001 T00890078
Loading
Personal Weather Stations






























Interactive Weather Map New forecast layout! Learn more

10-Day Weather Forecast

Advertisements
Track Severe Weather on mobile